Sturgeon Falls, Canada
Current Conditions -  °F | °C
As of 4:00 PM on Thursday 18 Dec 2014 (Local Time) from CYSB Reporting Station
Few Clouds Few Clouds  
Wind Chill: -17°   Ceiling: Unl
Heat Index: -10°   Visibility: 20mi
Dew Point: -13°   Wind: 9mph
Humidity: 79%   Direction: 350°N
Pressure: 30.12"   Gusts: NA
Location:  46.37°N, 79.93°W
Report Text: CYSB 182100Z 35008KT 20SM FEW010 M10/M13 A3012 RMK CU1 SLP225
Loading
Personal Weather Stations






























Interactive Weather Map New forecast layout! Learn more

10-Day Weather Forecast

Advertisements
Track Severe Weather on mobile